createdAt,value
2018-11-28T00:01:04.221Z,-5.25
2018-11-28T00:02:14.122Z,-5.35
2018-11-28T00:03:24.430Z,-5.41
2018-11-28T00:04:34.591Z,-5.41
2018-11-28T00:05:44.796Z,-5.55
2018-11-28T00:06:54.953Z,-5.53
2018-11-28T00:08:05.117Z,-5.48
2018-11-28T00:09:15.323Z,-5.59
2018-11-28T00:10:25.486Z,-5.46
2018-11-28T00:11:35.649Z,-5.56
2018-11-28T00:12:45.820Z,-5.53
2018-11-28T00:13:55.982Z,-5.56
2018-11-28T00:15:06.247Z,-5.63
2018-11-28T00:16:16.406Z,-5.73
2018-11-28T00:17:26.566Z,-5.66
2018-11-28T00:18:36.729Z,-5.68
2018-11-28T00:19:46.888Z,-5.64
2018-11-28T00:20:57.095Z,-5.77
2018-11-28T00:22:07.268Z,-5.6
2018-11-28T00:23:17.430Z,-5.58
2018-11-28T00:24:27.597Z,-5.59
2018-11-28T00:25:37.761Z,-5.6
2018-11-28T00:26:47.971Z,-5.56
2018-11-28T00:27:58.137Z,-5.45
2018-11-28T00:29:08.297Z,-5.49
2018-11-28T00:30:18.457Z,-5.6
2018-11-28T00:31:28.618Z,-5.59
2018-11-28T00:32:38.932Z,-5.59
2018-11-28T00:33:49.090Z,-5.63
2018-11-28T00:34:59.251Z,-5.68
2018-11-28T00:36:09.455Z,-5.66
2018-11-28T00:37:19.629Z,-5.68
2018-11-28T00:38:29.943Z,-5.7
2018-11-28T00:39:40.113Z,-5.73
2018-11-28T00:40:50.275Z,-5.68
2018-11-28T00:42:00.445Z,-5.71
2018-11-28T00:43:10.605Z,-5.67
2018-11-28T00:44:20.875Z,-5.71
2018-11-28T00:45:31.093Z,-5.66
2018-11-28T00:46:41.257Z,-5.58
2018-11-28T00:47:51.414Z,-5.56
2018-11-28T00:49:01.573Z,-5.56
2018-11-28T00:50:11.830Z,-5.58
2018-11-28T00:51:21.986Z,-5.56
2018-11-28T00:52:32.147Z,-5.46
2018-11-28T00:53:42.309Z,-5.49
2018-11-28T00:54:52.471Z,-5.59
2018-11-28T00:56:02.681Z,-5.59
2018-11-28T00:57:12.844Z,-5.59
2018-11-28T00:58:23.004Z,-5.55
2018-11-28T00:59:33.162Z,-5.56
2018-11-28T01:00:43.327Z,-5.48
2018-11-28T01:01:53.635Z,-5.45
2018-11-28T01:03:03.798Z,-5.5
2018-11-28T01:04:13.958Z,-5.5
2018-11-28T01:05:24.191Z,-5.34
2018-11-28T01:06:34.419Z,-5.25
2018-11-28T01:07:44.636Z,-5.25
2018-11-28T01:08:54.797Z,-5.25
2018-11-28T01:10:04.959Z,-5.34
2018-11-28T01:11:15.119Z,-5.38
2018-11-28T01:12:25.280Z,-5.38
2018-11-28T01:13:35.490Z,-5.34
2018-11-28T01:14:45.684Z,-5.37
2018-11-28T01:15:55.841Z,-5.38
2018-11-28T01:17:05.998Z,-5.41
2018-11-28T01:18:16.159Z,-5.38
2018-11-28T01:19:26.379Z,-5.41
2018-11-28T01:20:36.542Z,-5.45
2018-11-28T01:21:46.706Z,-5.39
2018-11-28T01:22:56.866Z,-5.5
2018-11-28T01:24:07.026Z,-5.55
2018-11-28T01:25:17.241Z,-5.55
2018-11-28T01:26:27.451Z,-5.59
2018-11-28T01:27:37.616Z,-5.59
2018-11-28T01:28:51.387Z,-5.59
2018-11-28T01:30:01.550Z,-5.67
2018-11-28T01:31:11.862Z,-5.68
2018-11-28T01:32:22.021Z,-5.74
2018-11-28T01:33:32.179Z,-5.81
2018-11-28T01:34:42.346Z,-5.82
2018-11-28T01:35:52.507Z,-5.82
2018-11-28T01:37:02.816Z,-5.84
2018-11-28T01:38:12.979Z,-5.74
2018-11-28T01:39:23.140Z,-5.91
2018-11-28T01:40:33.301Z,-5.92
2018-11-28T01:41:43.470Z,-5.88
2018-11-28T01:42:53.684Z,-5.91
2018-11-28T01:44:03.846Z,-5.81
2018-11-28T01:45:14.015Z,-5.85
2018-11-28T01:46:24.175Z,-5.89
2018-11-28T01:47:34.341Z,-5.84
2018-11-28T01:48:44.650Z,-5.81
2018-11-28T01:49:54.819Z,-5.78
2018-11-28T01:51:04.978Z,-5.88
2018-11-28T01:52:15.188Z,-5.82
2018-11-28T01:53:25.350Z,-5.73
2018-11-28T01:54:35.607Z,-5.71
2018-11-28T01:55:45.768Z,-5.81
2018-11-28T01:56:55.926Z,-5.77
2018-11-28T01:58:06.081Z,-5.87
2018-11-28T01:59:16.246Z,-5.82
2018-11-28T02:00:26.458Z,-5.81
2018-11-28T02:01:36.621Z,-5.84
2018-11-28T02:02:46.787Z,-5.78
2018-11-28T02:03:56.941Z,-5.97
2018-11-28T02:05:07.108Z,-5.88
2018-11-28T02:06:17.415Z,-5.97
2018-11-28T02:07:27.579Z,-5.92
2018-11-28T02:08:37.742Z,-5.91
2018-11-28T02:09:47.925Z,-5.91
2018-11-28T02:10:58.093Z,-5.92
2018-11-28T02:12:08.306Z,-5.89
2018-11-28T02:13:18.467Z,-5.91
2018-11-28T02:14:28.630Z,-5.94
2018-11-28T02:15:38.791Z,-5.91
2018-11-28T02:16:48.951Z,-5.95
2018-11-28T02:17:59.164Z,-5.99
2018-11-28T02:19:09.333Z,-5.92
2018-11-28T02:20:19.497Z,-5.91
2018-11-28T02:21:29.654Z,-5.94
2018-11-28T02:22:39.812Z,-5.97
2018-11-28T02:23:50.087Z,-5.89
2018-11-28T02:25:00.255Z,-5.95
2018-11-28T02:26:10.421Z,-5.97
2018-11-28T02:27:20.584Z,-5.88
2018-11-28T02:28:30.750Z,-5.95
2018-11-28T02:29:41.068Z,-5.95
2018-11-28T02:30:51.226Z,-5.95
2018-11-28T02:32:01.394Z,-5.85
2018-11-28T02:33:11.563Z,-5.95
2018-11-28T02:34:21.726Z,-5.95
2018-11-28T02:35:31.936Z,-6
2018-11-28T02:36:42.105Z,-6.03
2018-11-28T02:37:52.002Z,-6.03
2018-11-28T02:39:02.170Z,-6.06
2018-11-28T02:40:12.339Z,-6.06
2018-11-28T02:41:22.660Z,-6.02
2018-11-28T02:42:32.830Z,-6.06
2018-11-28T02:43:42.991Z,-5.97
2018-11-28T02:44:53.154Z,-6.05
2018-11-28T02:46:03.391Z,-6.03
2018-11-28T02:47:13.696Z,-6
2018-11-28T02:48:23.857Z,-6
2018-11-28T02:49:34.021Z,-5.92
2018-11-28T02:50:44.182Z,-5.91
2018-11-28T02:51:54.354Z,-5.94
2018-11-28T02:53:04.659Z,-5.91
2018-11-28T02:54:14.822Z,-5.88
2018-11-28T02:55:24.981Z,-5.94
2018-11-28T02:56:35.156Z,-5.94
2018-11-28T02:57:45.334Z,-5.92
2018-11-28T02:58:55.715Z,-5.97
2018-11-28T03:00:05.883Z,-5.95
2018-11-28T03:01:16.050Z,-5.95
2018-11-28T03:02:26.214Z,-5.87
2018-11-28T03:03:36.378Z,-5.89
2018-11-28T03:04:46.638Z,-5.84
2018-11-28T03:05:56.800Z,-5.82
2018-11-28T03:07:06.979Z,-5.74
2018-11-28T03:08:17.143Z,-5.85
2018-11-28T03:09:27.310Z,-5.78
2018-11-28T03:10:37.697Z,-5.78
2018-11-28T03:11:47.871Z,-5.68
2018-11-28T03:12:58.044Z,-5.68
2018-11-28T03:14:08.215Z,-5.59
2018-11-28T03:15:18.397Z,-5.59
2018-11-28T03:16:28.610Z,-5.56
2018-11-28T03:17:38.770Z,-5.58
2018-11-28T03:18:48.929Z,-5.55
2018-11-28T03:19:59.101Z,-5.58
2018-11-28T03:21:09.276Z,-5.55
2018-11-28T03:22:19.487Z,-5.46
2018-11-28T03:23:29.386Z,-5.5
2018-11-28T03:24:39.615Z,-5.39
2018-11-28T03:25:49.808Z,-5.31
2018-11-28T03:26:59.970Z,-5.25
2018-11-28T03:28:10.250Z,-5.32
2018-11-28T03:29:20.425Z,-5.25
2018-11-28T03:30:30.603Z,-5.13
2018-11-28T03:31:40.790Z,-5.1
2018-11-28T03:32:50.985Z,-5.01
2018-11-28T03:34:01.280Z,-5.02
2018-11-28T03:35:11.453Z,-5.08
2018-11-28T03:36:21.637Z,-5.1
2018-11-28T03:37:31.803Z,-5.25
2018-11-28T03:38:41.966Z,-5.3
2018-11-28T03:39:52.284Z,-5.27
2018-11-28T03:41:02.449Z,-5.31
2018-11-28T03:42:12.625Z,-5.09
2018-11-28T03:43:22.799Z,-5.3
2018-11-28T03:44:32.975Z,-5.12
2018-11-28T03:45:43.285Z,-5.27
2018-11-28T03:46:53.454Z,-5.23
2018-11-28T03:48:03.620Z,-5.28
2018-11-28T03:49:13.782Z,-5.37
2018-11-28T03:50:23.959Z,-5.41
2018-11-28T03:51:34.286Z,-5.49
2018-11-28T03:52:44.190Z,-5.6
2018-11-28T03:53:54.389Z,-5.64
2018-11-28T03:55:04.580Z,-5.6
2018-11-28T03:56:14.747Z,-5.73
2018-11-28T03:57:25.068Z,-5.7
2018-11-28T03:58:35.238Z,-5.76
2018-11-28T03:59:45.419Z,-5.82
2018-11-28T04:00:55.611Z,-5.82
2018-11-28T04:02:05.806Z,-5.95
2018-11-28T04:03:16.233Z,-5.91
2018-11-28T04:04:26.397Z,-5.78
2018-11-28T04:05:36.560Z,-5.88
2018-11-28T04:06:46.727Z,-5.92
2018-11-28T04:07:56.899Z,-5.88
2018-11-28T04:09:07.161Z,-5.87
2018-11-28T04:10:17.364Z,-5.88
2018-11-28T04:11:27.531Z,-5.91
2018-11-28T04:12:37.494Z,-5.94
2018-11-28T04:13:47.688Z,-5.94
2018-11-28T04:14:58.003Z,-5.89
2018-11-28T04:16:08.187Z,-5.97
2018-11-28T04:17:18.357Z,-5.94
2018-11-28T04:18:28.518Z,-5.94
2018-11-28T04:19:38.717Z,-5.88
2018-11-28T04:20:49.054Z,-5.95
2018-11-28T04:21:59.231Z,-5.99
2018-11-28T04:23:09.389Z,-5.94
2018-11-28T04:24:19.549Z,-5.94
2018-11-28T04:25:29.709Z,-5.97
2018-11-28T04:26:40.018Z,-5.92
2018-11-28T04:27:50.184Z,-5.88
2018-11-28T04:29:00.342Z,-5.94
2018-11-28T04:30:10.521Z,-5.92
2018-11-28T04:31:20.691Z,-5.94
2018-11-28T04:32:30.973Z,-5.91
2018-11-28T04:33:41.141Z,-5.91
2018-11-28T04:34:51.310Z,-5.84
2018-11-28T04:36:01.471Z,-5.95
2018-11-28T04:37:11.645Z,-5.97
2018-11-28T04:38:21.922Z,-5.91
2018-11-28T04:39:32.096Z,-5.91
2018-11-28T04:40:42.263Z,-5.94
2018-11-28T04:41:52.429Z,-5.94
2018-11-28T04:43:02.387Z,-5.94
2018-11-28T04:44:12.602Z,-5.97
2018-11-28T04:45:22.759Z,-5.91
2018-11-28T04:46:32.923Z,-5.97
2018-11-28T04:47:43.099Z,-5.94
2018-11-28T04:48:53.265Z,-5.94
2018-11-28T04:50:03.533Z,-5.95
2018-11-28T04:51:13.713Z,-5.91
2018-11-28T04:52:23.888Z,-5.94
2018-11-28T04:53:34.052Z,-5.92
2018-11-28T04:54:44.222Z,-5.92
2018-11-28T04:55:54.565Z,-5.89
2018-11-28T04:57:04.742Z,-5.91
2018-11-28T04:58:14.905Z,-5.89
2018-11-28T04:59:25.066Z,-5.92
2018-11-28T05:00:35.228Z,-5.95
2018-11-28T05:01:45.390Z,-5.94
2018-11-28T05:02:55.563Z,-5.99
2018-11-28T05:04:05.727Z,-5.89
2018-11-28T05:05:16.091Z,-5.94
2018-11-28T05:06:25.988Z,-5.88
2018-11-28T05:07:36.208Z,-5.91
2018-11-28T05:08:46.376Z,-5.94
2018-11-28T05:09:56.545Z,-5.95
2018-11-28T05:11:06.714Z,-5.91
2018-11-28T05:12:16.875Z,-5.88
2018-11-28T05:13:27.193Z,-5.81
2018-11-28T05:14:37.431Z,-5.85
2018-11-28T05:15:47.599Z,-5.88
2018-11-28T05:16:57.760Z,-5.85
2018-11-28T05:18:07.924Z,-5.87
2018-11-28T05:19:18.133Z,-5.88
2018-11-28T05:20:28.293Z,-5.81
2018-11-28T05:21:38.450Z,-5.91
2018-11-28T05:22:48.612Z,-5.89
2018-11-28T05:23:58.771Z,-5.89
2018-11-28T05:25:09.027Z,-5.92
2018-11-28T05:26:19.188Z,-5.85
2018-11-28T05:27:29.350Z,-5.89
2018-11-28T05:28:39.512Z,-5.85
2018-11-28T05:29:49.669Z,-5.74
2018-11-28T05:30:59.877Z,-5.84
2018-11-28T05:32:09.780Z,-5.76
2018-11-28T05:33:19.956Z,-5.78
2018-11-28T05:34:29.847Z,-5.71
2018-11-28T05:35:40.010Z,-5.7
2018-11-28T05:36:50.057Z,-5.68
2018-11-28T05:38:00.233Z,-5.66
2018-11-28T05:39:10.392Z,-5.59
2018-11-28T05:40:20.560Z,-5.6
2018-11-28T05:41:30.720Z,-5.55
2018-11-28T05:42:41.034Z,-5.49
2018-11-28T05:43:51.195Z,-5.6
2018-11-28T05:45:01.356Z,-5.56
2018-11-28T05:46:11.519Z,-5.67
2018-11-28T05:47:21.683Z,-5.67
2018-11-28T05:48:31.913Z,-5.68
2018-11-28T05:49:42.074Z,-5.74
2018-11-28T05:50:52.235Z,-5.67
2018-11-28T05:52:02.400Z,-5.71
2018-11-28T05:53:12.564Z,-5.74
2018-11-28T05:54:22.797Z,-5.82
2018-11-28T05:55:32.961Z,-5.78
2018-11-28T05:56:43.123Z,-5.74
2018-11-28T05:57:53.287Z,-5.7
2018-11-28T05:59:03.558Z,-5.82
2018-11-28T06:00:13.884Z,-5.76
2018-11-28T06:01:24.050Z,-5.77
2018-11-28T06:02:34.212Z,-5.84
2018-11-28T06:03:44.378Z,-5.59
2018-11-28T06:04:54.543Z,-5.66
2018-11-28T06:06:04.863Z,-5.64
2018-11-28T06:07:15.033Z,-5.63
2018-11-28T06:08:25.196Z,-5.6
2018-11-28T06:09:35.370Z,-5.58
2018-11-28T06:10:45.532Z,-5.59
2018-11-28T06:11:55.843Z,-5.52
2018-11-28T06:13:06.020Z,-5.5
2018-11-28T06:14:16.190Z,-5.49
2018-11-28T06:15:26.079Z,-5.39
2018-11-28T06:16:36.239Z,-5.5
2018-11-28T06:17:46.555Z,-5.55
2018-11-28T06:18:56.718Z,-5.45
2018-11-28T06:20:06.883Z,-5.41
2018-11-28T06:21:17.053Z,-5.48
2018-11-28T06:22:27.215Z,-5.43
2018-11-28T06:23:37.525Z,-5.45
2018-11-28T06:24:47.688Z,-5.45
2018-11-28T06:25:57.848Z,-5.5
2018-11-28T06:27:08.019Z,-5.5
2018-11-28T06:28:18.183Z,-5.5
2018-11-28T06:29:28.498Z,-5.43
2018-11-28T06:30:38.391Z,-5.48
2018-11-28T06:31:48.556Z,-5.55
2018-11-28T06:32:58.722Z,-5.48
2018-11-28T06:34:08.893Z,-5.58
2018-11-28T06:35:19.212Z,-5.46
2018-11-28T06:36:29.379Z,-5.53
2018-11-28T06:37:39.540Z,-5.43
2018-11-28T06:38:49.721Z,-5.38
2018-11-28T06:39:59.893Z,-5.5
2018-11-28T06:41:10.208Z,-5.48
2018-11-28T06:42:20.377Z,-5.38
2018-11-28T06:43:30.534Z,-5.34
2018-11-28T06:44:40.692Z,-5.31
2018-11-28T06:45:50.849Z,-5.37
2018-11-28T06:47:01.112Z,-5.25
2018-11-28T06:48:11.276Z,-5.2
2018-11-28T06:49:21.435Z,-5.3
2018-11-28T06:50:31.595Z,-5.25
2018-11-28T06:51:41.756Z,-5.28
2018-11-28T06:52:51.973Z,-5.27
2018-11-28T06:54:02.140Z,-5.27
2018-11-28T06:55:12.346Z,-5.31
2018-11-28T06:56:22.529Z,-5.16
2018-11-28T06:57:32.695Z,-5.21
2018-11-28T06:58:42.856Z,-5.2
2018-11-28T06:59:53.059Z,-5.2
2018-11-28T07:01:03.222Z,-5.13
2018-11-28T07:02:13.383Z,-5.21
2018-11-28T07:03:23.546Z,-5.21
2018-11-28T07:04:33.810Z,-5.12
2018-11-28T07:05:43.976Z,-5.21
2018-11-28T07:06:54.135Z,-5.19
2018-11-28T07:08:04.303Z,-5.08
2018-11-28T07:09:14.462Z,-5.12
2018-11-28T07:10:24.673Z,-5.25
2018-11-28T07:11:34.831Z,-5.23
2018-11-28T07:12:45.047Z,-5.32
2018-11-28T07:13:55.261Z,-5.25
2018-11-28T07:15:05.418Z,-5.32
2018-11-28T07:16:15.635Z,-5.41
2018-11-28T07:17:25.804Z,-5.39
2018-11-28T07:18:35.971Z,-5.49
2018-11-28T07:19:46.222Z,-5.45
2018-11-28T07:20:56.468Z,-5.53
2018-11-28T07:22:06.737Z,-5.5
2018-11-28T07:23:16.665Z,-5.52
2018-11-28T07:24:26.839Z,-5.5
2018-11-28T07:25:37.001Z,-5.49
2018-11-28T07:26:47.164Z,-5.45
2018-11-28T07:27:57.435Z,-5.48
2018-11-28T07:29:07.594Z,-5.52
2018-11-28T07:30:17.811Z,-5.37
2018-11-28T07:31:27.983Z,-5.45
2018-11-28T07:32:38.144Z,-5.39
2018-11-28T07:33:48.414Z,-5.46
2018-11-28T07:34:58.580Z,-5.41
2018-11-28T07:36:08.745Z,-5.39
2018-11-28T07:37:18.903Z,-5.39
2018-11-28T07:38:29.066Z,-5.38
2018-11-28T07:39:39.339Z,-5.38
2018-11-28T07:40:49.501Z,-5.28
2018-11-28T07:41:59.666Z,-5.2
2018-11-28T07:43:09.871Z,-5.2
2018-11-28T07:44:20.041Z,-5.28
2018-11-28T07:45:30.570Z,-5.25
2018-11-28T07:46:40.751Z,-5.25
2018-11-28T07:47:50.919Z,-5.28
2018-11-28T07:49:01.082Z,-5.21
2018-11-28T07:50:11.242Z,-5.31
2018-11-28T07:51:21.561Z,-5.21
2018-11-28T07:52:31.728Z,-5.21
2018-11-28T07:53:41.891Z,-5.3
2018-11-28T07:54:52.058Z,-5.3
2018-11-28T07:56:01.955Z,-5.27
2018-11-28T07:57:12.226Z,-5.27
2018-11-28T07:58:22.397Z,-5.28
2018-11-28T07:59:32.300Z,-5.27
2018-11-28T08:00:42.471Z,-5.27
2018-11-28T08:01:52.634Z,-5.32
2018-11-28T08:03:02.956Z,-5.3
2018-11-28T08:04:13.119Z,-5.27
2018-11-28T08:05:23.461Z,-5.28
2018-11-28T08:06:33.623Z,-5.17
2018-11-28T08:07:43.787Z,-5.09
2018-11-28T08:08:54.055Z,-5.12
2018-11-28T08:10:04.271Z,-5.16
2018-11-28T08:11:14.512Z,-5.02
2018-11-28T08:12:24.746Z,-5.02
2018-11-28T08:13:34.961Z,-5.08
2018-11-28T08:14:45.127Z,-4.97
2018-11-28T08:15:55.295Z,-4.97
2018-11-28T08:17:05.467Z,-4.94
2018-11-28T08:18:15.635Z,-4.94
2018-11-28T08:19:28.983Z,-4.97
2018-11-28T08:20:39.030Z,-4.97
2018-11-28T08:21:49.213Z,-4.94
2018-11-28T08:23:00.397Z,-4.83
2018-11-28T08:24:10.566Z,-4.8
2018-11-28T08:25:20.738Z,-4.87
2018-11-28T08:26:35.769Z,-4.77
2018-11-28T08:27:46.214Z,-4.79
2018-11-28T08:28:56.378Z,-4.8
2018-11-28T08:30:06.543Z,-4.77
2018-11-28T08:31:16.707Z,-4.77
2018-11-28T08:32:26.978Z,-4.71
2018-11-28T08:33:37.151Z,-4.71
2018-11-28T08:34:47.318Z,-4.67
2018-11-28T08:35:57.483Z,-4.65
2018-11-28T08:37:07.645Z,-4.76
2018-11-28T08:38:17.909Z,-4.58
2018-11-28T08:39:28.084Z,-4.61
2018-11-28T08:40:38.252Z,-4.56
2018-11-28T08:41:48.426Z,-4.58
2018-11-28T08:42:58.598Z,-4.56
2018-11-28T08:44:09.027Z,-4.41
2018-11-28T08:45:19.340Z,-4.44
2018-11-28T08:46:29.706Z,-4.35
2018-11-28T08:47:39.869Z,-4.31
2018-11-28T08:48:50.030Z,-4.24
2018-11-28T08:50:00.196Z,-4.19
2018-11-28T08:51:10.367Z,-4.14
2018-11-28T08:52:20.537Z,-4.26
2018-11-28T08:53:30.728Z,-4.3
2018-11-28T08:54:40.895Z,-4.4
2018-11-28T08:55:51.210Z,-4.4
2018-11-28T08:57:01.936Z,-4.44
2018-11-28T08:58:12.104Z,-4.55
2018-11-28T08:59:22.278Z,-4.62
2018-11-28T09:00:32.175Z,-4.63
2018-11-28T09:01:42.387Z,-4.55
2018-11-28T09:02:52.551Z,-4.62
2018-11-28T09:04:02.723Z,-4.69
2018-11-28T09:05:13.049Z,-4.73
2018-11-28T09:06:23.223Z,-4.76
2018-11-28T09:07:33.436Z,-4.74
2018-11-28T09:08:43.596Z,-4.8
2018-11-28T09:09:54.747Z,-4.73
2018-11-28T09:11:04.657Z,-4.87
2018-11-28T09:12:14.829Z,-4.76
2018-11-28T09:13:25.075Z,-4.74
2018-11-28T09:14:35.271Z,-4.88
2018-11-28T09:15:45.437Z,-4.83
2018-11-28T09:16:55.600Z,-4.8
2018-11-28T09:18:05.858Z,-4.8
2018-11-28T09:19:16.169Z,-4.73
2018-11-28T09:20:26.336Z,-4.76
2018-11-28T09:23:59.624Z,-4.73
2018-11-28T09:25:09.827Z,-4.77
2018-11-28T09:26:20.007Z,-4.69
2018-11-28T09:27:30.178Z,-4.76
2018-11-28T09:28:40.080Z,-4.7
2018-11-28T09:29:50.294Z,-4.71
2018-11-28T09:31:00.513Z,-4.76
2018-11-28T09:32:10.674Z,-4.67
2018-11-28T09:33:20.838Z,-4.67
2018-11-28T09:34:31.020Z,-4.63
2018-11-28T09:35:41.340Z,-4.63
2018-11-28T09:36:51.505Z,-4.58
2018-11-28T09:38:01.668Z,-4.67
2018-11-28T09:39:11.829Z,-4.61
2018-11-28T09:40:22.008Z,-4.73
2018-11-28T09:41:32.425Z,-4.65
2018-11-28T09:42:42.583Z,-4.7
2018-11-28T09:43:52.767Z,-4.63
2018-11-28T09:45:02.935Z,-4.7
2018-11-28T09:46:12.833Z,-4.69
2018-11-28T09:47:23.093Z,-4.62
2018-11-28T09:48:32.718Z,-4.62
2018-11-28T09:49:42.876Z,-4.73
2018-11-28T09:50:53.043Z,-4.65
2018-11-28T09:52:03.208Z,-4.63
2018-11-28T09:53:13.524Z,-4.63
2018-11-28T09:54:23.686Z,-4.56
2018-11-28T09:55:33.863Z,-4.56
2018-11-28T09:56:44.031Z,-4.44
2018-11-28T09:57:54.269Z,-4.45
2018-11-28T09:59:04.488Z,-4.4
2018-11-28T10:00:14.656Z,-4.47
2018-11-28T10:01:24.825Z,-4.44
2018-11-28T10:02:34.986Z,-4.52
2018-11-28T10:03:45.145Z,-4.42
2018-11-28T10:04:55.591Z,-4.55
2018-11-28T10:06:10.615Z,-4.55
2018-11-28T10:07:20.775Z,-4.59
2018-11-28T10:08:30.938Z,-4.55
2018-11-28T10:09:41.105Z,-4.51
2018-11-28T10:10:51.278Z,-4.47
2018-11-28T10:12:01.441Z,-4.58
2018-11-28T10:13:11.606Z,-4.61
2018-11-28T10:14:21.771Z,-4.58
2018-11-28T10:15:37.981Z,-4.56
2018-11-28T10:16:50.506Z,-4.59
2018-11-28T10:18:02.333Z,-4.58
2018-11-28T10:19:12.504Z,-4.53
2018-11-28T10:20:22.666Z,-4.61
2018-11-28T10:21:32.834Z,-4.47
2018-11-28T10:22:43.099Z,-4.45
2018-11-28T10:23:53.264Z,-4.51
2018-11-28T10:25:03.427Z,-4.45
2018-11-28T10:26:13.608Z,-4.45
2018-11-28T10:27:23.771Z,-4.38
2018-11-28T10:28:34.035Z,-4.41
2018-11-28T10:29:43.930Z,-4.31
2018-11-28T10:30:54.091Z,-4.42
2018-11-28T10:32:04.258Z,-4.41
2018-11-28T10:33:14.450Z,-4.34
2018-11-28T10:34:29.445Z,-4.35
2018-11-28T10:35:39.740Z,-4.19
2018-11-28T10:36:49.910Z,-4.16
2018-11-28T10:38:00.071Z,-4.22
2018-11-28T10:39:10.236Z,-4.24
2018-11-28T10:40:20.445Z,-4.26
2018-11-28T10:41:30.619Z,-4.24
2018-11-28T10:42:40.823Z,-4.27
2018-11-28T10:43:50.986Z,-4.26
2018-11-28T10:45:01.164Z,-4.17
2018-11-28T10:46:11.447Z,-4.14
2018-11-28T10:47:21.625Z,-4.17
2018-11-28T10:48:31.804Z,-4.17
2018-11-28T10:49:41.988Z,-4.24
2018-11-28T10:50:52.165Z,-4.14
2018-11-28T10:52:02.865Z,-4.14
2018-11-28T10:53:12.775Z,-4.14
2018-11-28T10:54:22.956Z,-4.14
2018-11-28T10:55:33.136Z,-4.16
2018-11-28T10:56:43.318Z,-4.14
2018-11-28T10:57:53.549Z,-4.23
2018-11-28T10:59:03.460Z,-4.13
2018-11-28T11:00:13.643Z,-4.12
2018-11-28T11:01:23.827Z,-4.05
2018-11-28T11:02:34.299Z,-4.09
2018-11-28T11:03:44.483Z,-3.98
2018-11-28T11:04:54.662Z,-3.94
2018-11-28T11:06:04.902Z,-4.02
2018-11-28T11:07:15.089Z,-3.94
2018-11-28T11:08:25.303Z,-3.9
2018-11-28T11:09:35.488Z,-3.74
2018-11-28T11:10:46.071Z,-3.68
2018-11-28T11:11:56.250Z,-3.68
2018-11-28T11:13:06.429Z,-3.61
2018-11-28T11:14:16.621Z,-3.53
2018-11-28T11:15:26.797Z,-3.48
2018-11-28T11:16:36.972Z,-3.47
2018-11-28T11:17:47.152Z,-3.41
2018-11-28T11:18:57.332Z,-3.23
2018-11-28T11:20:07.661Z,-3.27
2018-11-28T11:21:17.844Z,-3.22
2018-11-28T11:22:28.030Z,-3.15
2018-11-28T11:23:37.962Z,-3.11
2018-11-28T11:24:48.143Z,-3.09
2018-11-28T11:25:58.326Z,-3.08
2018-11-28T11:27:08.605Z,-3.08
2018-11-28T11:28:18.783Z,-3.05
2018-11-28T11:29:28.966Z,-3.01
2018-11-28T11:30:39.143Z,-3.04
2018-11-28T11:31:49.340Z,-3.04
2018-11-28T11:32:59.619Z,-3.02
2018-11-28T11:34:09.800Z,-3.01
2018-11-28T11:35:20.389Z,-2.96
2018-11-28T11:36:30.580Z,-2.98
2018-11-28T11:37:40.762Z,-2.94
2018-11-28T11:38:50.938Z,-2.96
2018-11-28T11:40:02.255Z,-3.08
2018-11-28T11:41:12.439Z,-3.17
2018-11-28T11:42:22.954Z,-3.15
2018-11-28T11:43:33.139Z,-3.4
2018-11-28T11:44:43.423Z,-3.38
2018-11-28T11:45:53.606Z,-3.36
2018-11-28T11:47:03.799Z,-3.38
2018-11-28T11:48:13.717Z,-3.33
2018-11-28T11:49:23.903Z,-3.22
2018-11-28T11:50:34.187Z,-3.19
2018-11-28T11:51:44.369Z,-3.2
2018-11-28T11:52:54.582Z,-3.15
2018-11-28T11:54:04.771Z,-3.19
2018-11-28T11:55:15.972Z,-3.17
2018-11-28T11:56:26.286Z,-3.05
2018-11-28T11:57:36.470Z,-3.08
2018-11-28T11:58:46.702Z,-3.08
2018-11-28T11:59:56.890Z,-3.02
2018-11-28T12:01:07.448Z,-2.96
2018-11-28T12:02:17.631Z,-2.96
2018-11-28T12:03:27.813Z,-2.9
2018-11-28T12:04:37.996Z,-2.81
2018-11-28T12:05:48.220Z,-2.84
2018-11-28T12:06:58.415Z,-2.91
2018-11-28T12:08:08.754Z,-2.83
2018-11-28T12:09:18.940Z,-2.87
2018-11-28T12:10:29.127Z,-3.02
2018-11-28T12:11:39.047Z,-2.9
2018-11-28T12:12:54.223Z,-2.86
2018-11-28T12:14:04.454Z,-2.84
2018-11-28T12:15:14.651Z,-2.86
2018-11-28T12:16:26.633Z,-3.02
2018-11-28T12:17:36.818Z,-2.98
2018-11-28T12:18:47.001Z,-3.01
2018-11-28T12:19:57.285Z,-3.08
2018-11-28T12:21:07.476Z,-3.11
2018-11-28T12:22:17.664Z,-3.11
2018-11-28T12:23:27.851Z,-3.19
2018-11-28T12:24:38.033Z,-3.2
2018-11-28T12:25:48.211Z,-3.29
2018-11-28T12:26:58.391Z,-3.27
2018-11-28T12:28:08.571Z,-3.23
2018-11-28T12:29:19.478Z,-3.38
2018-11-28T12:30:29.733Z,-3.27
2018-11-28T12:31:39.964Z,-3.3
2018-11-28T12:32:50.149Z,-3.33
2018-11-28T12:34:00.343Z,-3.41
2018-11-28T12:35:10.532Z,-3.4
2018-11-28T12:36:20.722Z,-3.36
2018-11-28T12:37:30.905Z,-3.4
2018-11-28T12:38:41.200Z,-3.36
2018-11-28T12:39:51.387Z,-3.3
2018-11-28T12:41:01.307Z,-3.25
2018-11-28T12:42:11.504Z,-3.12
2018-11-28T12:43:21.742Z,-3.17
2018-11-28T12:44:31.931Z,-3.05
2018-11-28T12:45:42.112Z,-3.07
2018-11-28T12:46:52.300Z,-3.07
2018-11-28T12:48:02.491Z,-3.07
2018-11-28T12:49:12.772Z,-3.01
2018-11-28T12:50:22.963Z,-3.01
2018-11-28T12:51:33.142Z,-3.01
2018-11-28T12:52:43.337Z,-3.02
2018-11-28T12:53:53.561Z,-2.89
2018-11-28T12:55:03.743Z,-2.89
2018-11-28T12:56:13.921Z,-2.86
2018-11-28T12:57:24.142Z,-2.86
2018-11-28T12:58:34.323Z,-2.86
2018-11-28T12:59:44.502Z,-2.91
2018-11-28T13:00:54.781Z,-2.87
2018-11-28T13:02:04.969Z,-2.91
2018-11-28T13:03:15.150Z,-2.94
2018-11-28T13:04:25.346Z,-2.94
2018-11-28T13:05:35.521Z,-2.83
2018-11-28T13:06:45.750Z,-2.9
2018-11-28T13:07:55.931Z,-2.91
2018-11-28T13:09:06.111Z,-2.81
2018-11-28T13:10:16.336Z,-2.83
2018-11-28T13:11:26.513Z,-2.7
2018-11-28T13:12:36.690Z,-2.8
2018-11-28T13:13:46.862Z,-2.65
2018-11-28T13:14:57.034Z,-2.68
2018-11-28T13:16:07.227Z,-2.54
2018-11-28T13:17:17.400Z,-2.51
2018-11-28T13:18:27.589Z,-2.51
2018-11-28T13:19:37.500Z,-2.47
2018-11-28T13:20:48.043Z,-2.55
2018-11-28T13:21:58.224Z,-2.47
2018-11-28T13:23:08.136Z,-2.55
2018-11-28T13:24:18.425Z,-2.57
2018-11-28T13:25:28.600Z,-2.52
2018-11-28T13:26:38.776Z,-2.5
2018-11-28T13:27:48.959Z,-2.57
2018-11-28T13:28:59.139Z,-2.5
2018-11-28T13:30:09.425Z,-2.51
2018-11-28T13:31:19.605Z,-2.54
2018-11-28T13:32:29.795Z,-2.5
2018-11-28T13:33:39.970Z,-2.57
2018-11-28T13:34:50.168Z,-2.52
2018-11-28T13:36:00.354Z,-2.42
2018-11-28T13:37:10.574Z,-2.39
2018-11-28T13:39:30.680Z,-2.39
2018-11-28T13:40:40.866Z,-2.39
2018-11-28T13:41:51.050Z,-2.42
2018-11-28T13:43:01.232Z,-2.36
2018-11-28T13:44:11.421Z,-2.54
2018-11-28T13:45:21.596Z,-2.58
2018-11-28T13:46:31.787Z,-2.52
2018-11-28T13:47:41.698Z,-2.52
2018-11-28T13:48:51.876Z,-2.52
2018-11-28T13:50:02.058Z,-2.57
2018-11-28T13:51:12.233Z,-2.52
2018-11-28T13:52:22.410Z,-2.55
2018-11-28T13:53:32.582Z,-2.55
2018-11-28T13:55:44.515Z,-2.65
2018-11-28T13:58:10.750Z,-2.68
2018-11-28T13:59:20.925Z,-2.68
2018-11-28T14:00:31.100Z,-2.61
2018-11-28T14:01:41.280Z,-2.69
2018-11-28T14:02:51.461Z,-2.72
2018-11-28T14:04:01.640Z,-2.68
2018-11-28T14:05:11.930Z,-2.81
2018-11-28T14:06:22.104Z,-2.81
2018-11-28T14:07:32.278Z,-2.86
2018-11-28T14:08:42.513Z,-2.84
2018-11-28T14:09:52.720Z,-2.86
2018-11-28T14:11:02.999Z,-2.93
2018-11-28T14:12:13.177Z,-2.99
2018-11-28T14:13:23.366Z,-2.94
2018-11-28T14:14:33.352Z,-2.94
2018-11-28T14:15:43.528Z,-2.98
2018-11-28T14:16:53.801Z,-3.05
2018-11-28T14:18:03.979Z,-3.07
2018-11-28T14:19:14.158Z,-3.15
2018-11-28T14:20:24.632Z,-3.09
2018-11-28T14:21:34.827Z,-3.09
2018-11-28T14:22:45.113Z,-3.14
2018-11-28T14:23:55.289Z,-3.09
2018-11-28T14:25:05.463Z,-3.2
2018-11-28T14:26:15.371Z,-3.17
2018-11-28T14:27:25.547Z,-3.17
2018-11-28T14:28:35.851Z,-3.26
2018-11-28T14:29:46.029Z,-3.29
2018-11-28T14:30:56.203Z,-3.17
2018-11-28T14:32:06.394Z,-3.27
2018-11-28T14:33:16.588Z,-3.26
2018-11-28T14:34:26.820Z,-3.2
2018-11-28T14:35:36.993Z,-3.17
2018-11-28T14:36:47.234Z,-3.17
2018-11-28T14:37:57.454Z,-3.04
2018-11-28T14:39:07.648Z,-3.08
2018-11-28T14:40:18.001Z,-3.12
2018-11-28T14:41:28.179Z,-3.26
2018-11-28T14:42:38.977Z,-3.17
2018-11-28T14:43:48.922Z,-3.25
2018-11-28T14:44:59.094Z,-3.29
2018-11-28T14:46:09.374Z,-3.22
2018-11-28T14:47:19.546Z,-3.15
2018-11-28T14:48:29.718Z,-3.12
2018-11-28T14:49:39.953Z,-3.12
2018-11-28T14:50:50.226Z,-3.07
2018-11-28T14:52:00.597Z,-3.2
2018-11-28T14:53:10.780Z,-3.08
2018-11-28T14:54:20.953Z,-3.14
2018-11-28T14:55:31.129Z,-3.23
2018-11-28T14:56:41.305Z,-3.2
2018-11-28T14:57:51.580Z,-3.17
2018-11-28T14:59:01.886Z,-3.09
2018-11-28T15:00:12.066Z,-3.12
2018-11-28T15:01:22.242Z,-3.19
2018-11-28T15:02:32.421Z,-3.19
2018-11-28T15:03:42.431Z,-3.08
2018-11-28T15:04:52.612Z,-3.04
2018-11-28T15:06:02.795Z,-3.17
2018-11-28T15:07:13.017Z,-3.08
2018-11-28T15:08:23.199Z,-3.05
2018-11-28T15:09:33.486Z,-2.94
2018-11-28T15:10:43.758Z,-3.01
2018-11-28T15:11:53.934Z,-2.86
2018-11-28T15:13:04.107Z,-2.86
2018-11-28T15:14:14.280Z,-2.8